Time;durP1;ratioP1;P1;durP2;ratioP2;P2;SDS_P1;SDS_P2;PMS_P1;PMS_P2;Temp;Humidity;BMP_temperature;BMP_pressure;BME280_temperature;BME280_humidity;BME280_pressure;Samples;Min_cycle;Max_cycle;Signal;HPM_P1;HPM_P2
2024/01/01 00:00:27;;;;;;;0.73;0.73;;;;;;;9.28;94.80;99334.56;4988897;28;20027;-67
2024/01/01 00:02:52;;;;;;;0.80;0.80;;;;;;;9.25;95.38;99345.31;5005207;28;20493;-69
2024/01/01 00:05:18;;;;;;;0.90;0.90;;;;;;;9.25;95.95;99340.00;4996126;28;20432;-68
2024/01/01 00:07:43;;;;;;;0.90;0.90;;;;;;;9.19;97.75;99347.31;4969797;28;20027;-68
2024/01/01 00:10:09;;;;;;;0.80;0.80;;;;;;;9.11;97.92;99352.91;4973810;28;20053;-65
2024/01/01 00:12:35;;;;;;;0.80;0.80;;;;;;;9.12;98.69;99353.78;4989468;28;20027;-68
2024/01/01 00:15:00;;;;;;;0.80;0.80;;;;;;;9.09;99.62;99354.75;4990011;28;20026;-67
2024/01/01 00:17:26;;;;;;;0.80;0.80;;;;;;;9.00;100.00;99348.91;4986434;28;20030;-68
2024/01/01 00:19:51;;;;;;;0.90;0.90;;;;;;;8.97;100.00;99364.94;4988849;28;20129;-67
2024/01/01 00:22:17;;;;;;;0.82;0.82;;;;;;;8.96;100.00;99363.22;4981276;28;20197;-67
2024/01/01 00:24:42;;;;;;;0.90;0.90;;;;;;;8.96;100.00;99353.47;4971362;28;20031;-67
2024/01/01 00:27:08;;;;;;;0.90;0.90;;;;;;;8.90;100.00;99352.81;4988157;28;20038;-66
2024/01/01 00:29:33;;;;;;;0.80;0.80;;;;;;;8.90;100.00;99344.88;4999672;28;20033;-67
2024/01/01 00:31:58;;;;;;;0.80;0.80;;;;;;;8.70;100.00;99319.06;5001562;28;20117;-67
2024/01/01 00:34:24;;;;;;;0.90;0.90;;;;;;;8.88;100.00;99352.03;4967200;28;20088;-67
2024/01/01 00:36:49;;;;;;;0.90;0.90;;;;;;;8.88;100.00;99349.38;4987970;28;20081;-67
2024/01/01 00:39:15;;;;;;;0.80;0.80;;;;;;;8.90;100.00;99345.75;4988157;28;20029;-67
2024/01/01 00:41:40;;;;;;;0.80;0.80;;;;;;;8.92;100.00;99351.00;4987648;28;20114;-67
2024/01/01 00:44:06;;;;;;;0.80;0.80;;;;;;;8.90;100.00;99347.53;4975414;28;20027;-67
2024/01/01 00:46:31;;;;;;;0.75;0.75;;;;;;;8.90;100.00;99352.81;4967183;28;20027;-67
2024/01/01 00:48:57;;;;;;;0.77;0.77;;;;;;;8.89;100.00;99346.69;4969468;28;20031;-67
2024/01/01 00:51:23;;;;;;;0.80;0.80;;;;;;;8.90;100.00;99347.53;4984157;28;20069;-66
2024/01/01 00:53:48;;;;;;;0.82;0.82;;;;;;;8.91;100.00;99347.47;4987228;28;20033;-67
2024/01/01 00:56:13;;;;;;;0.90;0.90;;;;;;;8.94;100.00;99342.06;4987086;28;20050;-66
2024/01/01 00:58:40;;;;;;;0.80;0.80;;;;;;;8.92;100.00;99343.03;4968815;28;20527;-66
2024/01/01 01:01:05;;;;;;;0.80;0.80;;;;;;;8.91;100.00;99343.97;4986343;28;20038;-67
2024/01/01 01:03:31;;;;;;;0.82;0.82;;;;;;;8.91;100.00;99347.47;4987334;28;20063;-67
2024/01/01 01:05:57;;;;;;;0.70;0.70;;;;;;;8.94;100.00;99347.38;4985251;28;20100;-67
2024/01/01 01:08:22;;;;;;;0.80;0.80;;;;;;;8.94;100.00;99351.81;4988054;28;20034;-67
2024/01/01 01:10:49;;;;;;;0.80;0.80;;;;;;;8.95;100.00;99350.88;4991093;28;20081;-66
2024/01/01 01:13:14;;;;;;;0.80;0.80;;;;;;;8.98;100.00;99350.75;4988148;28;20508;-67
2024/01/01 01:15:40;;;;;;;0.90;0.90;;;;;;;8.97;99.50;99357.00;4986133;28;20038;-67
2024/01/01 01:18:05;;;;;;;0.90;0.90;;;;;;;8.98;99.30;99359.59;4988291;28;20496;-67
2024/01/01 01:20:31;;;;;;;0.80;0.80;;;;;;;8.95;99.53;99350.88;4985479;28;20037;-67
2024/01/01 01:22:56;;;;;;;0.80;0.80;;;;;;;8.69;99.17;99305.88;4998751;28;20521;-66
2024/01/01 01:25:21;;;;;;;0.80;0.80;;;;;;;8.98;99.06;99353.41;5004326;28;20199;-67
2024/01/01 01:27:47;;;;;;;0.80;0.80;;;;;;;9.01;99.82;99362.13;4992346;28;20122;-67
2024/01/01 01:30:12;;;;;;;0.80;0.80;;;;;;;8.99;99.69;99363.13;4987701;28;20038;-67
2024/01/01 01:32:38;;;;;;;0.80;0.80;;;;;;;9.02;99.07;99368.28;4991665;28;20034;-67
2024/01/01 01:35:04;;;;;;;0.90;0.90;;;;;;;8.99;99.20;99363.13;4993013;28;20040;-67
2024/01/01 01:37:29;;;;;;;0.90;0.90;;;;;;;8.98;99.90;99366.66;4991237;28;20029;-68
2024/01/01 01:39:55;;;;;;;0.80;0.80;;;;;;;9.03;100.00;99370.00;4973936;28;20031;-67
2024/01/01 01:42:20;;;;;;;0.70;0.70;;;;;;;9.01;99.68;99382.50;4998544;28;20032;-67
2024/01/01 01:44:46;;;;;;;0.80;0.80;;;;;;;9.08;100.00;99383.97;5009740;28;20501;-62
2024/01/01 01:47:11;;;;;;;0.80;0.80;;;;;;;9.06;100.00;99377.88;5004300;28;20034;-61
2024/01/01 01:49:38;;;;;;;0.90;0.90;;;;;;;8.99;100.00;99377.25;4973546;28;20490;-61
2024/01/01 01:52:05;;;;;;;0.73;0.73;;;;;;;8.94;100.00;99371.25;4972509;28;20081;-62
2024/01/01 01:54:33;;;;;;;0.80;0.80;;;;;;;8.94;100.00;99381.84;4987725;28;20670;-62
2024/01/01 01:57:00;;;;;;;0.80;0.80;;;;;;;8.97;100.00;99375.56;4971224;28;20139;-62
2024/01/01 01:59:25;;;;;;;0.70;0.70;;;;;;;8.96;100.00;99384.44;4982017;28;20177;-63
2024/01/01 02:01:51;;;;;;;0.82;0.82;;;;;;;8.96;100.00;99379.16;4992586;28;20113;-61
2024/01/01 02:04:16;;;;;;;0.80;0.80;;;;;;;8.96;100.00;99381.78;4972415;28;20090;-62
2024/01/01 02:06:42;;;;;;;0.80;0.80;;;;;;;9.00;100.00;99380.75;4982811;28;20109;-63
2024/01/01 02:09:08;;;;;;;0.80;0.80;;;;;;;9.01;100.00;99382.50;4992339;28;20034;-61
2024/01/01 02:11:34;;;;;;;0.80;0.80;;;;;;;8.99;100.00;99384.34;4991986;28;20041;-62
2024/01/01 02:14:10;;;;;;;0.80;0.80;;;;;;;9.02;100.00;99385.09;4987628;28;20297;-62
2024/01/01 02:16:36;;;;;;;0.80;0.80;;;;;;;9.02;100.00;99378.91;4972979;28;20097;-61
2024/01/01 02:19:05;;;;;;;0.85;0.85;;;;;;;9.00;100.00;99383.41;4991009;28;20068;-61
2024/01/01 02:21:31;;;;;;;0.80;0.80;;;;;;;9.06;100.00;99389.34;4988890;28;20041;-62
2024/01/01 02:23:57;;;;;;;0.90;0.90;;;;;;;9.05;100.00;99394.72;4987301;28;20026;-62
2024/01/01 02:26:22;;;;;;;0.75;0.75;;;;;;;9.06;100.00;99383.19;4974319;28;20304;-63
2024/01/01 02:28:47;;;;;;;0.80;0.80;;;;;;;9.00;100.00;99383.41;4981841;28;20024;-62
2024/01/01 02:31:13;;;;;;;0.90;0.90;;;;;;;9.01;99.83;99374.53;4989700;28;20366;-62
2024/01/01 02:33:38;;;;;;;0.70;0.70;;;;;;;9.04;99.56;99382.38;4992324;28;20093;-63
2024/01/01 02:36:04;;;;;;;0.80;0.80;;;;;;;9.02;99.28;99378.91;4989149;28;20033;-62
2024/01/01 02:38:29;;;;;;;0.80;0.80;;;;;;;9.08;99.19;99376.91;4974503;28;20039;-61
2024/01/01 02:40:55;;;;;;;0.80;0.80;;;;;;;9.05;98.61;99373.50;4970334;28;20026;-62
2024/01/01 02:43:20;;;;;;;0.77;0.77;;;;;;;9.03;99.17;99373.53;4970000;28;20390;-62
2024/01/01 02:45:45;;;;;;;0.77;0.77;;;;;;;9.01;99.20;99383.34;4974512;28;20026;-61
2024/01/01 02:48:11;;;;;;;0.70;0.70;;;;;;;9.07;98.47;99393.75;4988284;28;20460;-62
2024/01/01 02:50:36;;;;;;;0.80;0.80;;;;;;;9.09;98.51;99391.88;4990702;28;20026;-62
2024/01/01 02:53:02;;;;;;;0.70;0.70;;;;;;;9.10;98.13;99398.06;4988089;28;20037;-62
2024/01/01 02:55:27;;;;;;;0.80;0.80;;;;;;;9.10;98.33;99404.25;4982090;28;20054;-62
2024/01/01 02:57:52;;;;;;;0.90;0.90;;;;;;;9.11;98.45;99405.97;4971611;28;20026;-62
2024/01/01 03:00:18;;;;;;;0.80;0.80;;;;;;;9.13;98.18;99403.25;4986052;28;20522;-62
2024/01/01 03:02:44;;;;;;;0.70;0.70;;;;;;;9.22;97.99;99405.59;4990375;28;20034;-62
2024/01/01 03:05:09;;;;;;;0.80;0.80;;;;;;;8.88;97.50;99365.28;4989651;28;20026;-61
2024/01/01 03:07:35;;;;;;;0.80;0.80;;;;;;;9.11;97.82;99405.97;4993847;28;20037;-61
2024/01/01 03:10:00;;;;;;;0.80;0.80;;;;;;;9.12;98.29;99417.44;4990596;28;20061;-62
2024/01/01 03:12:26;;;;;;;0.80;0.80;;;;;;;9.12;97.78;99412.13;4990464;28;20034;-61
2024/01/01 03:14:52;;;;;;;0.80;0.80;;;;;;;9.07;97.40;99408.78;4985820;28;20053;-62
2024/01/01 03:17:17;;;;;;;0.70;0.70;;;;;;;9.06;97.57;99421.19;4991846;28;20022;-62
2024/01/01 03:19:42;;;;;;;0.80;0.80;;;;;;;9.08;97.89;99408.72;4987064;28;20034;-63
2024/01/01 03:22:08;;;;;;;0.80;0.80;;;;;;;9.11;97.89;99426.31;4990560;28;20026;-62
2024/01/01 03:24:33;;;;;;;0.80;0.80;;;;;;;9.14;97.84;99416.44;4972090;28;20385;-62
2024/01/01 03:26:59;;;;;;;0.75;0.75;;;;;;;9.12;97.76;99409.50;4975854;28;20364;-61
2024/01/01 03:29:25;;;;;;;0.80;0.80;;;;;;;9.13;97.23;99403.25;4969338;28;20107;-61
2024/01/01 03:31:50;;;;;;;0.80;0.80;;;;;;;9.10;96.93;99404.25;4977594;28;20026;-62
2024/01/01 03:34:16;;;;;;;0.80;0.80;;;;;;;9.08;97.26;99394.59;4985329;28;20022;-62
2024/01/01 03:36:41;;;;;;;0.70;0.70;;;;;;;9.10;96.77;99398.06;4972456;28;20621;-62
2024/01/01 03:39:06;;;;;;;0.80;0.80;;;;;;;9.08;96.60;99391.94;4967927;28;20031;-62
2024/01/01 03:41:32;;;;;;;0.77;0.77;;;;;;;9.03;96.78;99385.94;4986841;28;20046;-62
2024/01/01 03:43:58;;;;;;;0.70;0.70;;;;;;;8.84;96.99;99358.34;4987131;28;20038;-61
2024/01/01 03:46:23;;;;;;;0.80;0.80;;;;;;;9.06;96.73;99397.31;4984685;28;20401;-62
2024/01/01 03:48:48;;;;;;;0.70;0.70;;;;;;;9.00;96.31;99401.97;4988752;28;20386;-62
2024/01/01 03:51:14;;;;;;;0.75;0.75;;;;;;;9.03;96.98;99399.19;4970627;28;20117;-61
2024/01/01 03:53:40;;;;;;;0.80;0.80;;;;;;;8.93;96.57;99411.06;4988225;28;20069;-62
2024/01/01 03:56:06;;;;;;;0.90;0.90;;;;;;;8.92;96.88;99406.69;4985593;28;20050;-62
2024/01/01 03:58:31;;;;;;;0.75;0.75;;;;;;;8.87;96.54;99396.25;4989022;28;20022;-61
2024/01/01 04:00:56;;;;;;;0.80;0.80;;;;;;;8.86;96.43;99394.50;4971745;28;20471;-62
2024/01/01 04:03:22;;;;;;;0.80;0.80;;;;;;;8.86;96.34;99393.66;4989266;28;20041;-62
2024/01/01 04:05:47;;;;;;;0.90;0.90;;;;;;;8.84;96.47;99400.78;4974433;28;20393;-61
2024/01/01 04:08:13;;;;;;;0.80;0.80;;;;;;;8.80;96.65;99393.84;4978836;28;20029;-61
2024/01/01 04:10:38;;;;;;;0.77;0.77;;;;;;;8.78;96.50;99395.72;4990061;28;20042;-62
2024/01/01 04:13:04;;;;;;;0.90;0.90;;;;;;;8.72;96.74;99401.22;4989272;28;20034;-62
2024/01/01 04:15:29;;;;;;;0.90;0.90;;;;;;;8.70;96.79;99405.69;4976291;28;20062;-62
2024/01/01 04:17:54;;;;;;;0.80;0.80;;;;;;;8.68;96.92;99399.59;4969357;28;20089;-62
2024/01/01 04:20:20;;;;;;;0.90;0.90;;;;;;;8.60;97.89;99406.97;4968687;28;20125;-62
2024/01/01 04:22:48;;;;;;;0.80;0.80;;;;;;;8.16;98.22;99334.22;4969276;28;20034;-62
2024/01/01 04:25:14;;;;;;;0.90;0.90;;;;;;;8.58;98.37;99414.09;4978634;28;20062;-67
2024/01/01 04:27:39;;;;;;;0.80;0.80;;;;;;;8.62;98.24;99413.03;4967678;28;20102;-67
2024/01/01 04:30:06;;;;;;;0.82;0.82;;;;;;;8.60;98.06;99420.22;4981084;28;20028;-67
2024/01/01 04:32:31;;;;;;;0.77;0.77;;;;;;;8.59;98.11;99414.03;4987505;28;20350;-67
2024/01/01 04:34:56;;;;;;;0.80;0.80;;;;;;;8.58;97.46;99424.69;4983775;28;20747;-67
2024/01/01 04:37:22;;;;;;;0.90;0.90;;;;;;;8.58;97.74;99424.69;4989388;28;20022;-67
2024/01/01 04:39:47;;;;;;;0.90;0.90;;;;;;;8.55;97.41;99417.69;4969950;28;20649;-67
2024/01/01 04:42:12;;;;;;;0.80;0.80;;;;;;;8.58;96.80;99428.19;4988815;28;20037;-67
2024/01/01 04:44:38;;;;;;;0.90;0.90;;;;;;;8.52;96.89;99423.09;4985063;28;20049;-68
2024/01/01 04:47:03;;;;;;;0.80;0.80;;;;;;;8.58;96.73;99430.00;4960267;28;20026;-67
2024/01/01 04:49:29;;;;;;;0.85;0.85;;;;;;;8.57;96.98;99423.81;4969135;28;20026;-67
2024/01/01 04:51:54;;;;;;;0.90;0.90;;;;;;;8.60;96.96;99429.00;4968694;28;20030;-67
2024/01/01 04:54:20;;;;;;;0.75;0.75;;;;;;;8.59;96.62;99432.59;4985019;28;20034;-67
2024/01/01 04:56:46;;;;;;;0.90;0.90;;;;;;;8.65;97.13;99431.53;4968246;28;20038;-65
2024/01/01 04:59:11;;;;;;;0.77;0.77;;;;;;;8.37;96.35;99388.31;4970921;28;20089;-67
2024/01/01 05:01:37;;;;;;;1.00;1.00;;;;;;;8.67;96.52;99441.13;4967895;28;20034;-67
2024/01/01 05:04:02;;;;;;;0.70;0.70;;;;;;;8.68;96.49;99442.03;4980464;28;20073;-67
2024/01/01 05:06:28;;;;;;;0.77;0.77;;;;;;;8.75;95.95;99438.22;4986921;28;20030;-67
2024/01/01 05:08:53;;;;;;;0.80;0.80;;;;;;;8.67;95.28;99456.16;4987533;28;20026;-67
2024/01/01 05:11:18;;;;;;;0.80;0.80;;;;;;;8.74;95.47;99441.78;4982587;28;20478;-67
2024/01/01 05:13:44;;;;;;;0.82;0.82;;;;;;;8.77;94.84;99453.16;4989148;28;20046;-67
2024/01/01 05:16:12;;;;;;;0.85;0.85;;;;;;;8.78;94.94;99449.59;4989256;28;20466;-67
2024/01/01 05:18:37;;;;;;;0.90;0.90;;;;;;;8.83;94.91;99444.16;4987811;28;20026;-67
2024/01/01 05:21:04;;;;;;;0.90;0.90;;;;;;;8.87;95.09;99448.41;4984824;28;20375;-67
2024/01/01 05:23:30;;;;;;;0.90;0.90;;;;;;;8.88;94.99;99445.69;4973334;28;20038;-67
2024/01/01 05:25:55;;;;;;;0.80;0.80;;;;;;;8.88;94.40;99447.50;4976178;28;20042;-68
2024/01/01 05:28:20;;;;;;;0.70;0.70;;;;;;;8.84;94.85;99443.22;4969019;28;20117;-67
2024/01/01 05:30:46;;;;;;;0.80;0.80;;;;;;;8.86;94.20;99444.88;4982916;28;20082;-67
2024/01/01 05:33:11;;;;;;;0.98;0.98;;;;;;;8.87;93.66;99446.63;4986668;28;20057;-67
2024/01/01 05:35:38;;;;;;;0.90;0.90;;;;;;;8.89;94.02;99451.88;4986916;28;20080;-62
2024/01/01 05:38:03;;;;;;;0.80;0.80;;;;;;;8.86;93.73;99452.84;4986773;28;20108;-62
2024/01/01 05:40:29;;;;;;;0.90;0.90;;;;;;;8.82;93.68;99447.69;4979832;28;20034;-62
2024/01/01 05:42:54;;;;;;;0.90;0.90;;;;;;;8.70;94.09;99461.38;4967235;28;20375;-62
2024/01/01 05:45:20;;;;;;;0.90;0.90;;;;;;;8.61;94.25;99451.97;4967363;28;20030;-62
2024/01/01 05:47:45;;;;;;;0.80;0.80;;;;;;;8.59;94.43;99468.81;4966934;28;20023;-62
2024/01/01 05:50:10;;;;;;;0.90;0.90;;;;;;;8.61;94.71;99465.22;4978728;28;20441;-61
2024/01/01 05:52:36;;;;;;;0.90;0.90;;;;;;;8.46;94.23;99462.19;4987216;28;20034;-62
2024/01/01 05:55:01;;;;;;;0.90;0.90;;;;;;;8.51;94.42;99471.75;4985301;28;20034;-62
2024/01/01 05:57:27;;;;;;;0.80;0.80;;;;;;;8.48;94.39;99470.97;4987494;28;20022;-61
2024/01/01 05:59:52;;;;;;;0.80;0.80;;;;;;;8.50;93.96;99480.59;4997587;28;20553;-62
2024/01/01 06:02:17;;;;;;;0.80;0.80;;;;;;;8.48;94.17;99478.91;4995775;28;20164;-63
2024/01/01 06:04:43;;;;;;;0.80;0.80;;;;;;;8.47;93.72;99474.50;5001522;28;20034;-62
2024/01/01 06:07:08;;;;;;;0.80;0.80;;;;;;;8.46;94.07;99476.31;4988482;28;20494;-62
2024/01/01 06:09:34;;;;;;;0.80;0.80;;;;;;;8.45;94.37;99473.72;4989171;28;20144;-61
2024/01/01 06:12:00;;;;;;;0.90;0.90;;;;;;;8.49;94.35;99493.91;4974153;28;20037;-61
2024/01/01 06:14:25;;;;;;;0.80;0.80;;;;;;;8.03;94.42;99423.81;4988110;28;20026;-61
2024/01/01 06:16:51;;;;;;;0.80;0.80;;;;;;;8.43;94.54;99484.38;4977416;28;20031;-61
2024/01/01 06:19:16;;;;;;;0.80;0.80;;;;;;;8.45;94.39;99486.97;4970295;28;20141;-61
2024/01/01 06:21:41;;;;;;;0.80;0.80;;;;;;;8.37;94.28;99478.41;4969970;28;20037;-62
2024/01/01 06:24:07;;;;;;;1.00;1.00;;;;;;;8.34;94.09;99474.06;4970122;28;20037;-62
2024/01/01 06:26:32;;;;;;;0.90;0.90;;;;;;;8.36;94.04;99482.84;4970594;28;20033;-62
2024/01/01 06:28:58;;;;;;;1.00;1.00;;;;;;;8.36;93.90;99498.72;4968885;28;20049;-62
2024/01/01 06:31:24;;;;;;;0.90;0.90;;;;;;;8.43;93.97;99488.81;4977329;28;20034;-62
2024/01/01 06:33:49;;;;;;;0.90;0.90;;;;;;;8.50;94.10;99490.34;4989026;28;20065;-63
2024/01/01 06:36:15;;;;;;;0.65;0.65;;;;;;;8.48;94.43;99493.03;4970726;28;20077;-62
2024/01/01 06:38:40;;;;;;;0.70;0.70;;;;;;;8.53;94.48;99490.25;4971884;28;20031;-63
2024/01/01 06:41:06;;;;;;;0.90;0.90;;;;;;;8.47;94.83;99485.13;4979924;28;20023;-62
2024/01/01 06:43:32;;;;;;;0.80;0.80;;;;;;;8.56;94.18;99500.72;4987700;28;20338;-67
2024/01/01 06:45:58;;;;;;;0.90;0.90;;;;;;;8.53;94.72;99506.13;4982532;28;20026;-67
2024/01/01 06:48:23;;;;;;;0.80;0.80;;;;;;;8.55;95.07;99514.91;4954061;28;20042;-68
2024/01/01 06:50:49;;;;;;;0.80;0.80;;;;;;;8.51;95.50;99514.16;4973190;28;20113;-66
2024/01/01 06:53:14;;;;;;;0.90;0.90;;;;;;;8.50;95.17;99514.19;4971186;28;20026;-67
2024/01/01 06:55:39;;;;;;;0.80;0.80;;;;;;;8.55;95.24;99512.28;4971896;28;20039;-68
2024/01/01 06:58:05;;;;;;;0.77;0.77;;;;;;;8.36;95.72;99485.47;4970703;28;20097;-69
2024/01/01 07:00:30;;;;;;;0.80;0.80;;;;;;;8.59;96.11;99532.44;4967897;28;20585;-67
2024/01/01 07:02:55;;;;;;;0.80;0.80;;;;;;;8.60;95.81;99535.03;4952120;28;20487;-68
2024/01/01 07:05:21;;;;;;;0.80;0.80;;;;;;;8.57;95.94;99539.56;4960645;28;20046;-68
2024/01/01 07:07:47;;;;;;;0.80;0.80;;;;;;;8.64;95.82;99542.00;4968311;28;20022;-67
2024/01/01 07:10:13;;;;;;;0.80;0.80;;;;;;;8.69;95.45;99536.53;4970039;28;20918;-68
2024/01/01 07:12:38;;;;;;;0.70;0.70;;;;;;;8.67;95.18;99546.31;4967992;28;20030;-68
2024/01/01 07:15:04;;;;;;;0.90;0.90;;;;;;;8.68;95.28;99550.72;4967515;28;20485;-68
2024/01/01 07:17:29;;;;;;;0.80;0.80;;;;;;;8.73;94.38;99557.59;4968485;28;20105;-67
2024/01/01 07:19:55;;;;;;;0.80;0.80;;;;;;;8.46;94.44;99509.91;4964306;28;20581;-68
2024/01/01 07:22:20;;;;;;;0.70;0.70;;;;;;;8.75;94.90;99561.06;4968531;28;20054;-68
2024/01/01 07:24:46;;;;;;;0.77;0.77;;;;;;;8.76;95.14;99567.22;4949241;28;20046;-68
2024/01/01 07:27:13;;;;;;;0.90;0.90;;;;;;;8.75;94.69;99570.78;4968853;28;20453;-68
2024/01/01 07:29:39;;;;;;;0.90;0.90;;;;;;;8.73;94.67;99573.50;4970212;28;20031;-67
2024/01/01 07:32:05;;;;;;;0.90;0.90;;;;;;;8.69;94.39;99571.88;4970636;28;20033;-68
2024/01/01 07:34:31;;;;;;;0.77;0.77;;;;;;;8.77;94.61;99576.91;4962954;28;20027;-68
2024/01/01 07:36:57;;;;;;;0.80;0.80;;;;;;;8.79;94.29;99588.34;4933324;29;20031;-66
2024/01/01 07:39:24;;;;;;;0.85;0.85;;;;;;;8.82;94.18;99590.91;4957540;28;20034;-65
2024/01/01 07:41:50;;;;;;;0.90;0.90;;;;;;;8.77;94.45;99588.41;4970355;28;20027;-64
2024/01/01 07:44:16;;;;;;;0.80;0.80;;;;;;;8.82;94.13;99588.25;4969849;28;20053;-67
2024/01/01 07:46:42;;;;;;;0.80;0.80;;;;;;;8.80;94.62;99590.06;4969392;28;20650;-68
2024/01/01 07:49:08;;;;;;;0.85;0.85;;;;;;;8.87;93.92;99602.22;4966803;28;20033;-67
2024/01/01 07:51:34;;;;;;;0.70;0.70;;;;;;;8.87;93.82;99591.63;4970011;28;20045;-67
2024/01/01 07:54:00;;;;;;;0.88;0.88;;;;;;;8.56;93.87;99537.84;4983289;28;20386;-62
2024/01/01 07:56:26;;;;;;;0.80;0.80;;;;;;;8.83;93.98;99596.13;4965507;28;20054;-62
2024/01/01 07:58:53;;;;;;;0.80;0.80;;;;;;;8.81;94.12;99591.81;4972146;28;20093;-62
2024/01/01 08:01:19;;;;;;;0.80;0.80;;;;;;;8.84;94.12;99591.72;4961996;28;20128;-64
2024/01/01 08:03:44;;;;;;;0.80;0.80;;;;;;;8.88;94.10;99582.75;4960089;28;20039;-60
2024/01/01 08:06:10;;;;;;;0.88;0.88;;;;;;;8.86;94.17;99589.88;4968393;28;20470;-60
2024/01/01 08:08:35;;;;;;;0.80;0.80;;;;;;;8.81;93.27;99591.81;4969664;28;20106;-61
2024/01/01 08:11:00;;;;;;;0.80;0.80;;;;;;;8.82;93.38;99596.19;4956529;28;20027;-60
2024/01/01 08:13:26;;;;;;;0.80;0.80;;;;;;;8.89;93.85;99598.63;4948920;29;20463;-60
2024/01/01 08:15:51;;;;;;;0.80;0.80;;;;;;;8.90;92.73;99603.00;4948688;29;20038;-60
2024/01/01 08:18:17;;;;;;;0.73;0.73;;;;;;;8.89;92.96;99600.41;4948834;29;20050;-60
2024/01/01 08:20:43;;;;;;;0.90;0.90;;;;;;;8.93;92.97;99612.63;4963252;28;20383;-61
2024/01/01 08:23:09;;;;;;;0.80;0.80;;;;;;;8.95;92.13;99602.84;4968764;28;20061;-61
2024/01/01 08:25:35;;;;;;;0.90;0.90;;;;;;;9.01;92.45;99600.84;4960317;28;20443;-61
2024/01/01 08:28:00;;;;;;;0.80;0.80;;;;;;;9.04;91.74;99602.56;4949909;28;20033;-62
2024/01/01 08:30:25;;;;;;;0.80;0.80;;;;;;;9.16;91.58;99610.06;4950671;28;20506;-61
2024/01/01 08:32:51;;;;;;;0.80;0.80;;;;;;;9.25;90.97;99602.72;4950002;29;20033;-60
2024/01/01 08:35:16;;;;;;;0.80;0.80;;;;;;;9.30;90.00;99606.06;4963928;28;20153;-61
2024/01/01 08:37:42;;;;;;;0.80;0.80;;;;;;;9.20;90.10;99561.31;4969155;28;20065;-61
2024/01/01 08:40:09;;;;;;;0.90;0.90;;;;;;;9.59;90.25;99615.66;4965027;28;20031;-60
2024/01/01 08:42:36;;;;;;;0.82;0.82;;;;;;;9.62;88.54;99614.72;4986005;28;20142;-61
2024/01/01 08:45:03;;;;;;;0.80;0.80;;;;;;;9.74;87.92;99608.94;4967801;28;20512;-60
2024/01/01 08:47:29;;;;;;;0.80;0.80;;;;;;;9.61;86.92;99586.41;4951935;28;20023;-61
2024/01/01 08:49:54;;;;;;;0.80;0.80;;;;;;;9.69;87.61;99622.38;4948724;29;20027;-61
2024/01/01 08:52:19;;;;;;;0.80;0.80;;;;;;;9.61;87.00;99624.44;4938635;28;20038;-61
2024/01/01 08:54:45;;;;;;;0.77;0.77;;;;;;;9.27;88.13;99584.06;4967367;28;20030;-62
2024/01/01 08:57:11;;;;;;;0.80;0.80;;;;;;;9.65;87.83;99627.88;4967597;28;20031;-61
2024/01/01 08:59:38;;;;;;;0.80;0.80;;;;;;;9.73;87.68;99623.16;4951378;28;20023;-61
2024/01/01 09:02:04;;;;;;;0.80;0.80;;;;;;;9.86;86.93;99630.63;4960991;28;20035;-61
2024/01/01 09:04:30;;;;;;;0.75;0.75;;;;;;;10.20;84.93;99625.84;4968554;28;20062;-62
2024/01/01 09:06:55;;;;;;;0.90;0.90;;;;;;;10.26;83.62;99627.41;4964751;28;20129;-61
2024/01/01 09:09:22;;;;;;;0.80;0.80;;;;;;;10.22;83.02;99636.41;4971895;28;20109;-61
2024/01/01 09:11:49;;;;;;;0.70;0.70;;;;;;;10.25;84.23;99639.84;4986681;28;20026;-61
2024/01/01 09:14:15;;;;;;;0.70;0.70;;;;;;;10.66;83.93;99640.06;4980033;28;20026;-60
2024/01/01 09:16:40;;;;;;;0.80;0.80;;;;;;;11.06;79.60;99592.28;4986289;28;20034;-60
2024/01/01 09:19:06;;;;;;;0.70;0.70;;;;;;;11.85;75.31;99651.94;4975471;28;20051;-61
2024/01/01 09:21:31;;;;;;;0.80;0.80;;;;;;;12.39;72.38;99652.16;4968191;28;20023;-61
2024/01/01 09:24:00;;;;;;;0.70;0.70;;;;;;;12.54;71.02;99650.56;4950779;28;20395;-61
2024/01/01 09:26:27;;;;;;;0.70;0.70;;;;;;;12.38;70.38;99663.75;4963573;28;20031;-60
2024/01/01 09:28:52;;;;;;;0.70;0.70;;;;;;;11.93;70.29;99657.78;4968116;28;20035;-61
2024/01/01 09:31:18;;;;;;;0.70;0.70;;;;;;;11.88;74.15;99654.47;4968564;28;20093;-61
2024/01/01 09:33:43;;;;;;;0.70;0.70;;;;;;;12.34;73.72;99651.50;4965434;28;20034;-61
2024/01/01 09:36:12;;;;;;;0.70;0.70;;;;;;;12.62;69.46;99659.94;4966194;28;20018;-61
2024/01/01 09:38:37;;;;;;;0.70;0.70;;;;;;;13.18;67.87;99655.50;4968353;28;20435;-61
2024/01/01 09:41:03;;;;;;;0.70;0.70;;;;;;;13.09;65.31;99660.41;4966883;28;20097;-61
2024/01/01 09:43:28;;;;;;;0.70;0.70;;;;;;;12.59;68.64;99657.44;4967953;28;20019;-61
2024/01/01 09:45:54;;;;;;;0.80;0.80;;;;;;;12.13;70.29;99665.78;4972207;28;20031;-61
2024/01/01 09:48:19;;;;;;;0.70;0.70;;;;;;;11.37;73.00;99667.28;4964641;28;20039;-61
2024/01/01 09:50:48;;;;;;;0.70;0.70;;;;;;;10.95;76.47;99664.59;4953208;29;20479;-61
2024/01/01 09:53:13;;;;;;;0.80;0.80;;;;;;;10.76;77.72;99660.06;4952567;29;20038;-61
2024/01/01 09:55:39;;;;;;;0.70;0.70;;;;;;;10.75;79.58;99674.28;4951090;29;20047;-61
2024/01/01 09:58:04;;;;;;;0.80;0.80;;;;;;;10.73;80.39;99669.00;4967702;28;20030;-61
2024/01/01 10:00:30;;;;;;;0.75;0.75;;;;;;;10.70;79.68;99669.13;4982143;28;20027;-62
2024/01/01 10:03:11;;;;;;;0.70;0.70;;;;;;;10.60;80.93;99663.31;4965812;28;20023;-62
2024/01/01 10:05:40;;;;;;;0.70;0.70;;;;;;;10.77;81.43;99661.78;4959022;28;20082;-62
2024/01/01 10:08:10;;;;;;;0.80;0.80;;;;;;;11.34;81.37;99662.97;4979884;28;20038;-62
2024/01/01 10:10:40;;;;;;;0.80;0.80;;;;;;;12.25;74.40;99649.25;4989545;28;20100;-62
2024/01/01 10:13:13;;;;;;;0.70;0.70;;;;;;;12.28;72.78;99654.44;4972234;28;20038;-63
2024/01/01 10:15:39;;;;;;;0.70;0.70;;;;;;;12.18;71.32;99649.59;4970379;28;20481;-68
2024/01/01 10:18:09;;;;;;;0.70;0.70;;;;;;;11.81;73.36;99653.03;4966912;28;20133;-68
2024/01/01 10:20:36;;;;;;;0.70;0.70;;;;;;;11.52;75.84;99650.69;4970128;28;20502;-71
2024/01/01 10:23:20;;;;;;;0.70;0.70;;;;;;;11.32;77.29;99655.97;4940419;29;20379;-68
2024/01/01 10:25:47;;;;;;;0.77;0.77;;;;;;;11.06;79.08;99667.69;4951582;29;20038;-68
2024/01/01 10:28:16;;;;;;;0.68;0.68;;;;;;;10.85;80.06;99667.66;4950755;29;20110;-68
2024/01/01 10:30:47;;;;;;;0.77;0.77;;;;;;;10.75;80.70;99664.50;4950995;28;20038;-68
2024/01/01 10:33:14;;;;;;;0.80;0.80;;;;;;;10.64;82.35;99664.06;4969776;28;20466;-68
2024/01/01 10:35:40;;;;;;;0.80;0.80;;;;;;;10.58;82.54;99670.47;4971328;28;20030;-68
2024/01/01 10:38:06;;;;;;;0.70;0.70;;;;;;;10.63;83.61;99668.50;4973417;28;20061;-67
2024/01/01 10:40:32;;;;;;;0.70;0.70;;;;;;;10.59;83.58;99661.56;4965791;28;20105;-68
2024/01/01 10:42:58;;;;;;;0.70;0.70;;;;;;;10.61;84.50;99654.41;4951964;29;20035;-67
2024/01/01 10:45:23;;;;;;;0.80;0.80;;;;;;;10.64;83.80;99654.28;4951928;29;20037;-67
2024/01/01 10:47:52;;;;;;;0.70;0.70;;;;;;;10.74;82.81;99653.94;4963849;28;20027;-68
2024/01/01 10:50:29;;;;;;;0.70;0.70;;;;;;;10.55;83.29;99633.38;4967537;28;20455;-69
2024/01/01 10:53:17;;;;;;;0.80;0.80;;;;;;;10.54;82.98;99652.03;4968995;28;20082;-69
2024/01/01 10:56:01;;;;;;;0.80;0.80;;;;;;;10.60;84.38;99659.78;4965042;28;20130;-68
2024/01/01 10:58:48;;;;;;;0.80;0.80;;;;;;;10.55;85.57;99651.97;4974765;28;20031;-67
2024/01/01 11:01:17;;;;;;;0.80;0.80;;;;;;;10.53;84.44;99661.81;4967162;28;20050;-67
2024/01/01 11:03:48;;;;;;;0.80;0.80;;;;;;;10.64;85.03;99661.41;4950946;28;20031;-68
2024/01/01 11:06:38;;;;;;;0.60;0.60;;;;;;;10.61;84.98;99661.50;4965621;28;20116;-68
2024/01/01 11:09:18;;;;;;;0.70;0.70;;;;;;;10.63;84.83;99651.66;4952261;28;20030;-67
2024/01/01 11:11:51;;;;;;;0.80;0.80;;;;;;;10.75;83.08;99656.53;4967529;28;20514;-67
2024/01/01 11:14:30;;;;;;;0.80;0.80;;;;;;;11.38;83.37;99659.25;4973029;28;20037;-67
2024/01/01 11:16:58;;;;;;;0.60;0.60;;;;;;;12.35;78.40;99641.69;4972965;28;20481;-68
2024/01/01 11:19:42;;;;;;;0.70;0.70;;;;;;;13.01;71.92;99655.44;4969018;28;20130;-67
2024/01/01 11:22:30;;;;;;;0.60;0.60;;;;;;;13.59;69.49;99668.63;4953908;28;20091;-67
2024/01/01 11:24:59;;;;;;;0.60;0.60;;;;;;;13.71;65.49;99665.31;4955362;28;20042;-62
2024/01/01 11:27:25;;;;;;;0.60;0.60;;;;;;;13.42;67.70;99673.91;4971015;28;20038;-62
2024/01/01 11:29:51;;;;;;;0.60;0.60;;;;;;;12.97;69.58;99672.50;4964232;28;20038;-62
2024/01/01 11:32:20;;;;;;;0.57;0.57;;;;;;;12.76;69.88;99662.88;4964063;28;20026;-63
2024/01/01 11:35:07;;;;;;;0.60;0.60;;;;;;;12.52;71.38;99658.66;4969846;28;20022;-62